sensor_id;sensor_type;location;lat;lon;timestamp;P1;durP1;ratioP1;P2;durP2;ratioP2
13849;SDS011;6995;52.618;13.488;2022-10-20T00:01:15;25.77;;;24.00;;
13849;SDS011;6995;52.618;13.488;2022-10-20T00:03:43;22.93;;;21.70;;
13849;SDS011;6995;52.618;13.488;2022-10-20T00:08:57;24.60;;;23.47;;
13849;SDS011;6995;52.618;13.488;2022-10-20T00:11:25;24.50;;;23.20;;
13849;SDS011;6995;52.618;13.488;2022-10-20T00:13:51;24.97;;;23.67;;
13849;SDS011;6995;52.618;13.488;2022-10-20T00:16:19;25.03;;;23.57;;
13849;SDS011;6995;52.618;13.488;2022-10-20T00:18:46;24.20;;;22.80;;
13849;SDS011;6995;52.618;13.488;2022-10-20T00:21:12;24.53;;;23.43;;
13849;SDS011;6995;52.618;13.488;2022-10-20T00:23:40;22.70;;;21.50;;
13849;SDS011;6995;52.618;13.488;2022-10-20T00:26:07;25.57;;;24.03;;
13849;SDS011;6995;52.618;13.488;2022-10-20T00:28:35;25.93;;;24.63;;
13849;SDS011;6995;52.618;13.488;2022-10-20T00:31:02;22.60;;;21.53;;
13849;SDS011;6995;52.618;13.488;2022-10-20T00:33:29;25.10;;;23.77;;
13849;SDS011;6995;52.618;13.488;2022-10-20T00:35:57;25.30;;;23.93;;
13849;SDS011;6995;52.618;13.488;2022-10-20T00:38:23;26.73;;;25.43;;
13849;SDS011;6995;52.618;13.488;2022-10-20T00:40:49;26.30;;;25.10;;
13849;SDS011;6995;52.618;13.488;2022-10-20T00:43:15;24.63;;;23.13;;
13849;SDS011;6995;52.618;13.488;2022-10-20T00:45:42;24.00;;;22.70;;
13849;SDS011;6995;52.618;13.488;2022-10-20T00:48:14;24.53;;;23.20;;
13849;SDS011;6995;52.618;13.488;2022-10-20T00:50:50;23.93;;;22.73;;
13849;SDS011;6995;52.618;13.488;2022-10-20T00:53:18;26.13;;;24.93;;
13849;SDS011;6995;52.618;13.488;2022-10-20T00:55:47;25.70;;;24.30;;
13849;SDS011;6995;52.618;13.488;2022-10-20T00:58:14;26.60;;;25.30;;
13849;SDS011;6995;52.618;13.488;2022-10-20T01:00:41;25.37;;;24.10;;
13849;SDS011;6995;52.618;13.488;2022-10-20T01:03:11;26.03;;;24.70;;
13849;SDS011;6995;52.618;13.488;2022-10-20T01:05:40;24.80;;;23.40;;
13849;SDS011;6995;52.618;13.488;2022-10-20T01:08:06;26.13;;;24.80;;
13849;SDS011;6995;52.618;13.488;2022-10-20T01:10:33;25.77;;;24.47;;
13849;SDS011;6995;52.618;13.488;2022-10-20T01:13:28;28.07;;;26.70;;
13849;SDS011;6995;52.618;13.488;2022-10-20T01:19:01;27.50;;;26.00;;
13849;SDS011;6995;52.618;13.488;2022-10-20T01:24:45;26.67;;;25.03;;
13849;SDS011;6995;52.618;13.488;2022-10-20T01:27:27;25.13;;;23.67;;
13849;SDS011;6995;52.618;13.488;2022-10-20T01:35:39;28.37;;;26.87;;
13849;SDS011;6995;52.618;13.488;2022-10-20T01:38:38;27.20;;;25.60;;
13849;SDS011;6995;52.618;13.488;2022-10-20T01:43:43;25.83;;;24.30;;
13849;SDS011;6995;52.618;13.488;2022-10-20T01:46:11;28.43;;;26.70;;
13849;SDS011;6995;52.618;13.488;2022-10-20T01:48:39;25.33;;;24.03;;
13849;SDS011;6995;52.618;13.488;2022-10-20T01:51:06;24.80;;;23.37;;
13849;SDS011;6995;52.618;13.488;2022-10-20T01:53:33;25.40;;;24.10;;
13849;SDS011;6995;52.618;13.488;2022-10-20T01:55:59;27.90;;;26.37;;
13849;SDS011;6995;52.618;13.488;2022-10-20T02:04:20;28.63;;;27.10;;
13849;SDS011;6995;52.618;13.488;2022-10-20T02:07:00;30.13;;;28.53;;
13849;SDS011;6995;52.618;13.488;2022-10-20T02:09:39;26.93;;;25.53;;
13849;SDS011;6995;52.618;13.488;2022-10-20T02:12:16;25.50;;;24.10;;
13849;SDS011;6995;52.618;13.488;2022-10-20T02:14:47;24.93;;;23.63;;
13849;SDS011;6995;52.618;13.488;2022-10-20T02:17:14;27.03;;;25.33;;
13849;SDS011;6995;52.618;13.488;2022-10-20T02:19:44;25.37;;;23.97;;
13849;SDS011;6995;52.618;13.488;2022-10-20T02:22:12;31.43;;;29.80;;
13849;SDS011;6995;52.618;13.488;2022-10-20T02:24:40;32.37;;;30.77;;
13849;SDS011;6995;52.618;13.488;2022-10-20T02:27:17;27.77;;;26.37;;
13849;SDS011;6995;52.618;13.488;2022-10-20T02:30:04;28.00;;;26.60;;
13849;SDS011;6995;52.618;13.488;2022-10-20T02:32:34;34.93;;;33.10;;
13849;SDS011;6995;52.618;13.488;2022-10-20T02:35:06;27.83;;;26.43;;
13849;SDS011;6995;52.618;13.488;2022-10-20T02:37:35;31.83;;;30.20;;
13849;SDS011;6995;52.618;13.488;2022-10-20T02:40:01;26.40;;;25.00;;
13849;SDS011;6995;52.618;13.488;2022-10-20T02:42:27;29.47;;;27.93;;
13849;SDS011;6995;52.618;13.488;2022-10-20T02:44:53;33.93;;;32.33;;
13849;SDS011;6995;52.618;13.488;2022-10-20T02:47:19;40.07;;;38.03;;
13849;SDS011;6995;52.618;13.488;2022-10-20T02:49:46;30.57;;;29.07;;
13849;SDS011;6995;52.618;13.488;2022-10-20T02:52:12;30.03;;;28.33;;
13849;SDS011;6995;52.618;13.488;2022-10-20T02:54:38;28.97;;;27.50;;
13849;SDS011;6995;52.618;13.488;2022-10-20T02:57:03;37.23;;;35.53;;
13849;SDS011;6995;52.618;13.488;2022-10-20T02:59:29;30.53;;;28.77;;
13849;SDS011;6995;52.618;13.488;2022-10-20T03:01:55;31.93;;;30.23;;
13849;SDS011;6995;52.618;13.488;2022-10-20T03:04:20;31.70;;;30.10;;
13849;SDS011;6995;52.618;13.488;2022-10-20T03:06:46;35.07;;;33.20;;
13849;SDS011;6995;52.618;13.488;2022-10-20T03:09:12;28.80;;;27.33;;
13849;SDS011;6995;52.618;13.488;2022-10-20T03:11:37;36.80;;;35.00;;
13849;SDS011;6995;52.618;13.488;2022-10-20T03:14:03;30.63;;;29.13;;
13849;SDS011;6995;52.618;13.488;2022-10-20T03:16:29;33.40;;;31.57;;
13849;SDS011;6995;52.618;13.488;2022-10-20T03:18:54;32.83;;;31.13;;
13849;SDS011;6995;52.618;13.488;2022-10-20T03:21:20;32.23;;;30.03;;
13849;SDS011;6995;52.618;13.488;2022-10-20T03:23:46;38.33;;;36.30;;
13849;SDS011;6995;52.618;13.488;2022-10-20T03:26:12;31.80;;;29.90;;
13849;SDS011;6995;52.618;13.488;2022-10-20T03:28:38;34.50;;;32.63;;
13849;SDS011;6995;52.618;13.488;2022-10-20T03:31:04;37.97;;;35.97;;
13849;SDS011;6995;52.618;13.488;2022-10-20T03:33:31;38.57;;;36.67;;
13849;SDS011;6995;52.618;13.488;2022-10-20T03:35:57;37.80;;;35.80;;
13849;SDS011;6995;52.618;13.488;2022-10-20T03:38:22;35.63;;;33.93;;
13849;SDS011;6995;52.618;13.488;2022-10-20T03:40:48;39.63;;;37.63;;
13849;SDS011;6995;52.618;13.488;2022-10-20T03:43:14;32.57;;;30.77;;
13849;SDS011;6995;52.618;13.488;2022-10-20T03:45:40;30.07;;;28.37;;
13849;SDS011;6995;52.618;13.488;2022-10-20T03:48:07;31.77;;;29.93;;
13849;SDS011;6995;52.618;13.488;2022-10-20T03:50:33;34.80;;;32.90;;
13849;SDS011;6995;52.618;13.488;2022-10-20T03:52:58;40.37;;;38.33;;
13849;SDS011;6995;52.618;13.488;2022-10-20T03:55:24;30.83;;;29.23;;
13849;SDS011;6995;52.618;13.488;2022-10-20T03:57:50;31.57;;;29.77;;
13849;SDS011;6995;52.618;13.488;2022-10-20T04:00:15;32.80;;;31.10;;
13849;SDS011;6995;52.618;13.488;2022-10-20T04:02:42;35.80;;;34.00;;
13849;SDS011;6995;52.618;13.488;2022-10-20T04:05:13;34.10;;;32.40;;
13849;SDS011;6995;52.618;13.488;2022-10-20T04:07:40;35.30;;;33.33;;
13849;SDS011;6995;52.618;13.488;2022-10-20T04:10:06;35.80;;;33.67;;
13849;SDS011;6995;52.618;13.488;2022-10-20T04:12:33;32.37;;;30.67;;
13849;SDS011;6995;52.618;13.488;2022-10-20T04:14:58;34.20;;;32.43;;
13849;SDS011;6995;52.618;13.488;2022-10-20T04:17:24;29.60;;;27.70;;
13849;SDS011;6995;52.618;13.488;2022-10-20T04:19:50;31.83;;;29.90;;
13849;SDS011;6995;52.618;13.488;2022-10-20T04:22:15;28.07;;;26.67;;
13849;SDS011;6995;52.618;13.488;2022-10-20T04:24:41;32.20;;;30.40;;
13849;SDS011;6995;52.618;13.488;2022-10-20T04:27:07;28.57;;;26.90;;
13849;SDS011;6995;52.618;13.488;2022-10-20T04:29:33;28.80;;;27.20;;
13849;SDS011;6995;52.618;13.488;2022-10-20T04:31:59;31.50;;;29.67;;
13849;SDS011;6995;52.618;13.488;2022-10-20T04:34:24;27.90;;;26.43;;
13849;SDS011;6995;52.618;13.488;2022-10-20T04:36:50;26.90;;;25.50;;
13849;SDS011;6995;52.618;13.488;2022-10-20T04:39:18;34.90;;;32.67;;
13849;SDS011;6995;52.618;13.488;2022-10-20T04:41:43;25.93;;;24.63;;
13849;SDS011;6995;52.618;13.488;2022-10-20T04:44:09;25.97;;;24.43;;
13849;SDS011;6995;52.618;13.488;2022-10-20T04:46:35;28.53;;;26.83;;
13849;SDS011;6995;52.618;13.488;2022-10-20T04:49:00;26.20;;;24.50;;
13849;SDS011;6995;52.618;13.488;2022-10-20T04:51:26;27.23;;;25.67;;
13849;SDS011;6995;52.618;13.488;2022-10-20T04:53:52;26.00;;;24.60;;
13849;SDS011;6995;52.618;13.488;2022-10-20T04:56:19;27.70;;;26.10;;
13849;SDS011;6995;52.618;13.488;2022-10-20T04:58:49;29.43;;;27.73;;
13849;SDS011;6995;52.618;13.488;2022-10-20T05:01:16;25.10;;;23.53;;
13849;SDS011;6995;52.618;13.488;2022-10-20T05:03:42;24.17;;;22.67;;
13849;SDS011;6995;52.618;13.488;2022-10-20T05:08:38;23.90;;;22.63;;
13849;SDS011;6995;52.618;13.488;2022-10-20T05:11:05;27.60;;;25.93;;
13849;SDS011;6995;52.618;13.488;2022-10-20T05:13:32;28.23;;;26.07;;
13849;SDS011;6995;52.618;13.488;2022-10-20T05:15:57;25.07;;;23.47;;
13849;SDS011;6995;52.618;13.488;2022-10-20T05:18:23;29.63;;;27.90;;
13849;SDS011;6995;52.618;13.488;2022-10-20T05:20:49;29.47;;;27.77;;
13849;SDS011;6995;52.618;13.488;2022-10-20T05:23:14;30.70;;;28.90;;
13849;SDS011;6995;52.618;13.488;2022-10-20T05:25:40;28.37;;;26.80;;
13849;SDS011;6995;52.618;13.488;2022-10-20T05:28:05;30.13;;;28.23;;
13849;SDS011;6995;52.618;13.488;2022-10-20T05:30:34;32.23;;;30.33;;
13849;SDS011;6995;52.618;13.488;2022-10-20T05:33:00;27.30;;;25.60;;
13849;SDS011;6995;52.618;13.488;2022-10-20T05:35:27;29.47;;;27.63;;
13849;SDS011;6995;52.618;13.488;2022-10-20T05:37:53;30.37;;;28.47;;
13849;SDS011;6995;52.618;13.488;2022-10-20T05:40:19;35.30;;;32.97;;
13849;SDS011;6995;52.618;13.488;2022-10-20T05:42:45;29.87;;;28.00;;
13849;SDS011;6995;52.618;13.488;2022-10-20T05:45:11;32.07;;;30.17;;
13849;SDS011;6995;52.618;13.488;2022-10-20T05:47:36;31.60;;;29.47;;
13849;SDS011;6995;52.618;13.488;2022-10-20T05:50:03;29.63;;;27.83;;
13849;SDS011;6995;52.618;13.488;2022-10-20T05:52:29;33.40;;;31.33;;
13849;SDS011;6995;52.618;13.488;2022-10-20T05:54:55;28.37;;;26.30;;
13849;SDS011;6995;52.618;13.488;2022-10-20T05:57:21;29.70;;;28.00;;
13849;SDS011;6995;52.618;13.488;2022-10-20T05:59:46;36.63;;;34.53;;
13849;SDS011;6995;52.618;13.488;2022-10-20T06:02:12;34.43;;;32.43;;
13849;SDS011;6995;52.618;13.488;2022-10-20T06:04:38;37.40;;;35.07;;
13849;SDS011;6995;52.618;13.488;2022-10-20T06:07:03;34.40;;;32.40;;
13849;SDS011;6995;52.618;13.488;2022-10-20T06:09:35;30.70;;;28.87;;
13849;SDS011;6995;52.618;13.488;2022-10-20T06:12:01;33.50;;;31.33;;
13849;SDS011;6995;52.618;13.488;2022-10-20T06:14:27;33.13;;;31.07;;
13849;SDS011;6995;52.618;13.488;2022-10-20T06:16:54;30.37;;;28.57;;
13849;SDS011;6995;52.618;13.488;2022-10-20T06:19:20;30.57;;;28.57;;
13849;SDS011;6995;52.618;13.488;2022-10-20T06:21:47;34.03;;;31.90;;
13849;SDS011;6995;52.618;13.488;2022-10-20T06:24:12;34.10;;;32.13;;
13849;SDS011;6995;52.618;13.488;2022-10-20T06:26:38;32.30;;;30.40;;
13849;SDS011;6995;52.618;13.488;2022-10-20T06:29:05;31.53;;;29.73;;
13849;SDS011;6995;52.618;13.488;2022-10-20T06:31:34;30.07;;;28.37;;
13849;SDS011;6995;52.618;13.488;2022-10-20T06:34:06;31.83;;;29.67;;
13849;SDS011;6995;52.618;13.488;2022-10-20T06:36:37;31.10;;;29.23;;
13849;SDS011;6995;52.618;13.488;2022-10-20T06:39:04;32.63;;;30.33;;
13849;SDS011;6995;52.618;13.488;2022-10-20T06:41:31;34.57;;;32.47;;
13849;SDS011;6995;52.618;13.488;2022-10-20T06:43:57;38.33;;;35.70;;
13849;SDS011;6995;52.618;13.488;2022-10-20T06:46:28;36.17;;;34.17;;
13849;SDS011;6995;52.618;13.488;2022-10-20T06:48:59;35.57;;;33.30;;
13849;SDS011;6995;52.618;13.488;2022-10-20T06:51:27;34.73;;;32.43;;
13849;SDS011;6995;52.618;13.488;2022-10-20T06:53:55;36.90;;;34.60;;
13849;SDS011;6995;52.618;13.488;2022-10-20T06:56:23;32.77;;;30.67;;
13849;SDS011;6995;52.618;13.488;2022-10-20T06:58:51;37.27;;;34.87;;
13849;SDS011;6995;52.618;13.488;2022-10-20T07:03:44;30.90;;;28.73;;
13849;SDS011;6995;52.618;13.488;2022-10-20T07:06:15;32.07;;;30.07;;
13849;SDS011;6995;52.618;13.488;2022-10-20T07:08:42;34.63;;;32.17;;
13849;SDS011;6995;52.618;13.488;2022-10-20T07:11:09;30.33;;;28.10;;
13849;SDS011;6995;52.618;13.488;2022-10-20T07:13:40;30.57;;;28.37;;
13849;SDS011;6995;52.618;13.488;2022-10-20T07:16:07;35.47;;;33.07;;
13849;SDS011;6995;52.618;13.488;2022-10-20T07:18:35;30.47;;;28.27;;
13849;SDS011;6995;52.618;13.488;2022-10-20T07:21:02;31.63;;;29.23;;
13849;SDS011;6995;52.618;13.488;2022-10-20T07:23:29;29.93;;;27.63;;
13849;SDS011;6995;52.618;13.488;2022-10-20T07:26:06;28.70;;;26.67;;
13849;SDS011;6995;52.618;13.488;2022-10-20T07:28:34;31.40;;;29.20;;
13849;SDS011;6995;52.618;13.488;2022-10-20T07:31:04;32.23;;;29.97;;
13849;SDS011;6995;52.618;13.488;2022-10-20T07:33:31;34.73;;;32.23;;
13849;SDS011;6995;52.618;13.488;2022-10-20T07:35:57;34.37;;;32.27;;
13849;SDS011;6995;52.618;13.488;2022-10-20T07:38:23;32.47;;;30.37;;
13849;SDS011;6995;52.618;13.488;2022-10-20T07:40:49;35.37;;;32.63;;
13849;SDS011;6995;52.618;13.488;2022-10-20T07:43:15;30.83;;;28.87;;
13849;SDS011;6995;52.618;13.488;2022-10-20T07:45:40;30.47;;;28.40;;
13849;SDS011;6995;52.618;13.488;2022-10-20T07:48:06;33.47;;;31.17;;
13849;SDS011;6995;52.618;13.488;2022-10-20T07:50:34;32.80;;;30.47;;
13849;SDS011;6995;52.618;13.488;2022-10-20T07:53:01;33.73;;;31.53;;
13849;SDS011;6995;52.618;13.488;2022-10-20T07:55:27;35.83;;;33.50;;
13849;SDS011;6995;52.618;13.488;2022-10-20T07:57:53;32.77;;;30.47;;
13849;SDS011;6995;52.618;13.488;2022-10-20T08:00:18;33.80;;;31.60;;
13849;SDS011;6995;52.618;13.488;2022-10-20T08:02:44;35.27;;;32.87;;
13849;SDS011;6995;52.618;13.488;2022-10-20T08:05:11;33.47;;;31.27;;
13849;SDS011;6995;52.618;13.488;2022-10-20T08:07:37;33.67;;;31.00;;
13849;SDS011;6995;52.618;13.488;2022-10-20T08:10:03;30.07;;;28.07;;
13849;SDS011;6995;52.618;13.488;2022-10-20T08:12:29;29.17;;;27.20;;
13849;SDS011;6995;52.618;13.488;2022-10-20T08:14:55;27.47;;;25.47;;
13849;SDS011;6995;52.618;13.488;2022-10-20T08:17:21;29.63;;;27.50;;
13849;SDS011;6995;52.618;13.488;2022-10-20T08:19:46;29.67;;;27.53;;
13849;SDS011;6995;52.618;13.488;2022-10-20T08:22:12;29.07;;;27.13;;
13849;SDS011;6995;52.618;13.488;2022-10-20T08:24:38;30.03;;;28.03;;
13849;SDS011;6995;52.618;13.488;2022-10-20T08:27:04;29.73;;;27.80;;
13849;SDS011;6995;52.618;13.488;2022-10-20T08:29:29;28.60;;;26.57;;
13849;SDS011;6995;52.618;13.488;2022-10-20T08:31:55;31.47;;;29.30;;
13849;SDS011;6995;52.618;13.488;2022-10-20T08:34:21;26.87;;;25.10;;
13849;SDS011;6995;52.618;13.488;2022-10-20T08:36:47;31.57;;;29.40;;
13849;SDS011;6995;52.618;13.488;2022-10-20T08:39:12;30.37;;;28.27;;
13849;SDS011;6995;52.618;13.488;2022-10-20T08:41:39;33.57;;;31.20;;
13849;SDS011;6995;52.618;13.488;2022-10-20T08:44:10;33.00;;;30.73;;
13849;SDS011;6995;52.618;13.488;2022-10-20T08:47:00;29.43;;;27.43;;
13849;SDS011;6995;52.618;13.488;2022-10-20T08:49:28;27.50;;;25.80;;
13849;SDS011;6995;52.618;13.488;2022-10-20T08:51:56;28.83;;;27.03;;
13849;SDS011;6995;52.618;13.488;2022-10-20T08:54:22;24.77;;;23.27;;
13849;SDS011;6995;52.618;13.488;2022-10-20T08:56:49;26.73;;;24.73;;
13849;SDS011;6995;52.618;13.488;2022-10-20T08:59:25;27.83;;;26.13;;
13849;SDS011;6995;52.618;13.488;2022-10-20T09:01:58;30.33;;;28.33;;
13849;SDS011;6995;52.618;13.488;2022-10-20T09:04:29;28.77;;;26.73;;
13849;SDS011;6995;52.618;13.488;2022-10-20T09:06:59;27.73;;;25.63;;
13849;SDS011;6995;52.618;13.488;2022-10-20T09:09:30;28.20;;;26.20;;
13849;SDS011;6995;52.618;13.488;2022-10-20T09:12:04;27.93;;;26.27;;
13849;SDS011;6995;52.618;13.488;2022-10-20T09:14:32;25.53;;;24.10;;
13849;SDS011;6995;52.618;13.488;2022-10-20T09:17:00;28.03;;;26.33;;
13849;SDS011;6995;52.618;13.488;2022-10-20T09:19:26;29.90;;;28.10;;
13849;SDS011;6995;52.618;13.488;2022-10-20T09:21:53;28.43;;;26.73;;
13849;SDS011;6995;52.618;13.488;2022-10-20T09:24:22;30.50;;;28.77;;
13849;SDS011;6995;52.618;13.488;2022-10-20T09:26:51;28.37;;;26.47;;
13849;SDS011;6995;52.618;13.488;2022-10-20T09:29:20;26.53;;;25.00;;
13849;SDS011;6995;52.618;13.488;2022-10-20T09:31:57;30.10;;;28.30;;
13849;SDS011;6995;52.618;13.488;2022-10-20T09:34:27;31.53;;;29.83;;
13849;SDS011;6995;52.618;13.488;2022-10-20T09:37:00;28.27;;;26.77;;
13849;SDS011;6995;52.618;13.488;2022-10-20T09:39:35;25.03;;;23.53;;
13849;SDS011;6995;52.618;13.488;2022-10-20T09:42:06;24.90;;;23.47;;
13849;SDS011;6995;52.618;13.488;2022-10-20T09:44:48;24.73;;;23.33;;
13849;SDS011;6995;52.618;13.488;2022-10-20T09:47:21;25.77;;;24.20;;
13849;SDS011;6995;52.618;13.488;2022-10-20T09:49:51;30.60;;;28.70;;
13849;SDS011;6995;52.618;13.488;2022-10-20T09:52:24;24.67;;;23.37;;
13849;SDS011;6995;52.618;13.488;2022-10-20T09:55:02;26.13;;;24.23;;
13849;SDS011;6995;52.618;13.488;2022-10-20T09:57:32;25.10;;;23.60;;
13849;SDS011;6995;52.618;13.488;2022-10-20T09:59:58;24.63;;;23.30;;
13849;SDS011;6995;52.618;13.488;2022-10-20T10:02:26;24.97;;;23.67;;
13849;SDS011;6995;52.618;13.488;2022-10-20T10:05:11;23.83;;;22.43;;
13849;SDS011;6995;52.618;13.488;2022-10-20T10:07:43;25.00;;;23.40;;
13849;SDS011;6995;52.618;13.488;2022-10-20T10:12:54;25.40;;;23.90;;
13849;SDS011;6995;52.618;13.488;2022-10-20T10:15:25;25.67;;;24.27;;
13849;SDS011;6995;52.618;13.488;2022-10-20T10:17:51;26.73;;;25.23;;
13849;SDS011;6995;52.618;13.488;2022-10-20T10:22:43;25.97;;;24.67;;
13849;SDS011;6995;52.618;13.488;2022-10-20T10:25:25;25.90;;;24.53;;
13849;SDS011;6995;52.618;13.488;2022-10-20T10:27:57;25.60;;;24.20;;
13849;SDS011;6995;52.618;13.488;2022-10-20T10:30:28;27.80;;;26.23;;
13849;SDS011;6995;52.618;13.488;2022-10-20T10:32:56;27.53;;;26.13;;
13849;SDS011;6995;52.618;13.488;2022-10-20T10:37:55;23.53;;;22.20;;
13849;SDS011;6995;52.618;13.488;2022-10-20T10:40:33;26.53;;;25.03;;
13849;SDS011;6995;52.618;13.488;2022-10-20T10:45:50;24.27;;;22.77;;
13849;SDS011;6995;52.618;13.488;2022-10-20T10:59:42;24.33;;;22.80;;
13849;SDS011;6995;52.618;13.488;2022-10-20T11:26:46;22.77;;;21.47;;
13849;SDS011;6995;52.618;13.488;2022-10-20T11:29:30;24.73;;;23.37;;
13849;SDS011;6995;52.618;13.488;2022-10-20T11:34:56;23.30;;;21.87;;
13849;SDS011;6995;52.618;13.488;2022-10-20T11:37:29;21.30;;;20.10;;
13849;SDS011;6995;52.618;13.488;2022-10-20T11:40:23;26.05;;;24.60;;
13849;SDS011;6995;52.618;13.488;2022-10-20T11:43:05;25.10;;;23.67;;
13849;SDS011;6995;52.618;13.488;2022-10-20T11:45:50;23.73;;;22.23;;
13849;SDS011;6995;52.618;13.488;2022-10-20T11:48:41;24.23;;;23.02;;
13849;SDS011;6995;52.618;13.488;2022-10-20T11:56:55;20.50;;;19.40;;
13849;SDS011;6995;52.618;13.488;2022-10-20T11:59:41;22.08;;;20.98;;
13849;SDS011;6995;52.618;13.488;2022-10-20T12:10:26;25.20;;;23.55;;
13849;SDS011;6995;52.618;13.488;2022-10-20T12:15:46;24.08;;;22.58;;
13849;SDS011;6995;52.618;13.488;2022-10-20T12:18:24;23.90;;;22.60;;
13849;SDS011;6995;52.618;13.488;2022-10-20T12:21:01;27.20;;;25.70;;
13849;SDS011;6995;52.618;13.488;2022-10-20T12:28:54;23.33;;;21.92;;
13849;SDS011;6995;52.618;13.488;2022-10-20T12:31:23;24.90;;;23.60;;
13849;SDS011;6995;52.618;13.488;2022-10-20T12:34:20;25.92;;;24.42;;
13849;SDS011;6995;52.618;13.488;2022-10-20T12:36:48;25.17;;;23.88;;
13849;SDS011;6995;52.618;13.488;2022-10-20T12:39:17;29.17;;;27.52;;
13849;SDS011;6995;52.618;13.488;2022-10-20T12:41:56;31.35;;;29.55;;
13849;SDS011;6995;52.618;13.488;2022-10-20T12:44:28;28.48;;;26.98;;
13849;SDS011;6995;52.618;13.488;2022-10-20T12:47:04;28.10;;;26.52;;
13849;SDS011;6995;52.618;13.488;2022-10-20T12:49:42;31.50;;;29.58;;
13849;SDS011;6995;52.618;13.488;2022-10-20T12:52:27;27.33;;;25.83;;
13849;SDS011;6995;52.618;13.488;2022-10-20T12:55:16;29.98;;;28.33;;
13849;SDS011;6995;52.618;13.488;2022-10-20T12:57:45;22.83;;;21.60;;
13849;SDS011;6995;52.618;13.488;2022-10-20T13:02:47;21.73;;;20.63;;
13849;SDS011;6995;52.618;13.488;2022-10-20T13:15:26;21.40;;;20.23;;
13849;SDS011;6995;52.618;13.488;2022-10-20T13:17:57;21.52;;;20.33;;
13849;SDS011;6995;52.618;13.488;2022-10-20T13:23:08;23.50;;;22.10;;
13849;SDS011;6995;52.618;13.488;2022-10-20T13:25:47;27.77;;;26.27;;
13849;SDS011;6995;52.618;13.488;2022-10-20T13:28:22;29.10;;;27.70;;
13849;SDS011;6995;52.618;13.488;2022-10-20T13:36:46;25.17;;;23.48;;
13849;SDS011;6995;52.618;13.488;2022-10-20T13:42:30;23.73;;;22.17;;
13849;SDS011;6995;52.618;13.488;2022-10-20T13:48:19;24.70;;;23.20;;
13849;SDS011;6995;52.618;13.488;2022-10-20T13:51:12;24.33;;;22.80;;
13849;SDS011;6995;52.618;13.488;2022-10-20T13:53:49;24.02;;;22.30;;
13849;SDS011;6995;52.618;13.488;2022-10-20T13:56:37;21.92;;;20.73;;
13849;SDS011;6995;52.618;13.488;2022-10-20T14:01:38;24.73;;;23.23;;
13849;SDS011;6995;52.618;13.488;2022-10-20T14:07:05;23.27;;;21.88;;
13849;SDS011;6995;52.618;13.488;2022-10-20T14:09:34;22.40;;;20.90;;
13849;SDS011;6995;52.618;13.488;2022-10-20T14:14:35;20.13;;;19.00;;
13849;SDS011;6995;52.618;13.488;2022-10-20T14:17:06;21.70;;;20.40;;
13849;SDS011;6995;52.618;13.488;2022-10-20T14:19:33;24.80;;;23.15;;
13849;SDS011;6995;52.618;13.488;2022-10-20T14:24:55;23.17;;;21.77;;
13849;SDS011;6995;52.618;13.488;2022-10-20T14:27:26;23.48;;;22.25;;
13849;SDS011;6995;52.618;13.488;2022-10-20T14:29:55;23.13;;;21.83;;
13849;SDS011;6995;52.618;13.488;2022-10-20T14:32:22;21.92;;;20.50;;
13849;SDS011;6995;52.618;13.488;2022-10-20T14:37:34;23.92;;;22.52;;
13849;SDS011;6995;52.618;13.488;2022-10-20T14:40:05;23.05;;;21.77;;
13849;SDS011;6995;52.618;13.488;2022-10-20T14:42:34;22.75;;;21.48;;
13849;SDS011;6995;52.618;13.488;2022-10-20T14:45:02;21.20;;;20.00;;
13849;SDS011;6995;52.618;13.488;2022-10-20T14:47:38;25.35;;;23.88;;
13849;SDS011;6995;52.618;13.488;2022-10-20T14:50:06;22.92;;;21.38;;
13849;SDS011;6995;52.618;13.488;2022-10-20T14:52:42;25.42;;;23.83;;
13849;SDS011;6995;52.618;13.488;2022-10-20T14:57:59;24.35;;;23.13;;
13849;SDS011;6995;52.618;13.488;2022-10-20T15:00:33;27.65;;;25.88;;
13849;SDS011;6995;52.618;13.488;2022-10-20T15:03:00;26.80;;;25.35;;
13849;SDS011;6995;52.618;13.488;2022-10-20T15:08:15;23.13;;;21.92;;
13849;SDS011;6995;52.618;13.488;2022-10-20T15:10:42;21.43;;;19.80;;
13849;SDS011;6995;52.618;13.488;2022-10-20T15:16:02;23.63;;;22.23;;
13849;SDS011;6995;52.618;13.488;2022-10-20T15:18:28;22.92;;;21.33;;
13849;SDS011;6995;52.618;13.488;2022-10-20T15:20:54;23.30;;;21.93;;
13849;SDS011;6995;52.618;13.488;2022-10-20T15:23:25;25.60;;;24.05;;
13849;SDS011;6995;52.618;13.488;2022-10-20T15:25:53;26.37;;;24.87;;
13849;SDS011;6995;52.618;13.488;2022-10-20T15:28:38;26.03;;;24.53;;
13849;SDS011;6995;52.618;13.488;2022-10-20T15:33:41;23.60;;;22.30;;
13849;SDS011;6995;52.618;13.488;2022-10-20T15:36:10;23.43;;;21.57;;
13849;SDS011;6995;52.618;13.488;2022-10-20T15:38:39;22.40;;;21.03;;
13849;SDS011;6995;52.618;13.488;2022-10-20T15:41:06;25.37;;;23.97;;
13849;SDS011;6995;52.618;13.488;2022-10-20T15:43:32;24.40;;;22.90;;
13849;SDS011;6995;52.618;13.488;2022-10-20T15:45:58;27.37;;;25.90;;
13849;SDS011;6995;52.618;13.488;2022-10-20T15:48:23;26.97;;;25.27;;
13849;SDS011;6995;52.618;13.488;2022-10-20T15:50:50;21.90;;;20.70;;
13849;SDS011;6995;52.618;13.488;2022-10-20T15:53:20;24.83;;;23.33;;
13849;SDS011;6995;52.618;13.488;2022-10-20T15:55:46;24.63;;;23.10;;
13849;SDS011;6995;52.618;13.488;2022-10-20T15:58:12;24.73;;;23.00;;
13849;SDS011;6995;52.618;13.488;2022-10-20T16:00:38;25.87;;;24.37;;
13849;SDS011;6995;52.618;13.488;2022-10-20T16:03:04;26.38;;;24.67;;
13849;SDS011;6995;52.618;13.488;2022-10-20T16:05:30;24.57;;;22.83;;
13849;SDS011;6995;52.618;13.488;2022-10-20T16:07:55;26.27;;;24.67;;
13849;SDS011;6995;52.618;13.488;2022-10-20T16:10:22;29.03;;;27.43;;
13849;SDS011;6995;52.618;13.488;2022-10-20T16:12:49;28.77;;;26.83;;
13849;SDS011;6995;52.618;13.488;2022-10-20T16:15:15;26.40;;;24.67;;
13849;SDS011;6995;52.618;13.488;2022-10-20T16:17:42;25.87;;;24.17;;
13849;SDS011;6995;52.618;13.488;2022-10-20T16:20:09;26.90;;;25.23;;
13849;SDS011;6995;52.618;13.488;2022-10-20T16:22:35;22.93;;;21.60;;
13849;SDS011;6995;52.618;13.488;2022-10-20T16:25:01;26.10;;;24.47;;
13849;SDS011;6995;52.618;13.488;2022-10-20T16:27:30;25.50;;;24.07;;
13849;SDS011;6995;52.618;13.488;2022-10-20T16:29:56;25.87;;;24.37;;
13849;SDS011;6995;52.618;13.488;2022-10-20T16:32:23;28.13;;;26.23;;
13849;SDS011;6995;52.618;13.488;2022-10-20T16:34:49;27.47;;;25.77;;
13849;SDS011;6995;52.618;13.488;2022-10-20T16:37:15;25.67;;;24.17;;
13849;SDS011;6995;52.618;13.488;2022-10-20T16:39:40;27.63;;;25.93;;
13849;SDS011;6995;52.618;13.488;2022-10-20T16:42:06;26.83;;;25.00;;
13849;SDS011;6995;52.618;13.488;2022-10-20T16:44:32;25.47;;;23.50;;
13849;SDS011;6995;52.618;13.488;2022-10-20T16:46:57;27.60;;;25.93;;
13849;SDS011;6995;52.618;13.488;2022-10-20T16:49:23;27.10;;;25.50;;
13849;SDS011;6995;52.618;13.488;2022-10-20T16:51:49;26.33;;;24.83;;
13849;SDS011;6995;52.618;13.488;2022-10-20T16:54:17;30.70;;;28.70;;
13849;SDS011;6995;52.618;13.488;2022-10-20T16:56:43;24.60;;;23.20;;
13849;SDS011;6995;52.618;13.488;2022-10-20T16:59:11;29.50;;;27.43;;
13849;SDS011;6995;52.618;13.488;2022-10-20T17:01:37;28.23;;;26.70;;
13849;SDS011;6995;52.618;13.488;2022-10-20T17:04:02;27.93;;;26.03;;